Terminal Aerodrome Forecast
Issued by NWS Shreveport, LA

Home | Current Version | Previous Version | Text Only | Print | Product List | Glossary On
Versions: 1 2 3 4 5 6 7 8 9 10 11 12 13 14 15 16 17
000
FTUS44 KSHV 010541
TAFSHV
TAF
KSHV 010541Z 0106/0206 VRB03KT P6SM SCT040 BKN170 OVC250
     FM011400 15004KT P6SM SCT015 BKN150 BKN250
     FM011600 15005KT P6SM VCTS SCT030CB BKN150 BKN250
     FM011800 16007KT P6SM VCTS BKN040CB BKN150
     FM020000 VRB04KT P6SM VCTS BKN045CB=

USA.gov is the U.S. government's official web portal to all federal, state and local government web resources and services.